sensor_id;sensor_type;location;lat;lon;timestamp;temperature;humidity
728;DHT22;347;48.780;9.158;2022-11-20T00:01:18;9.70;43.50
728;DHT22;347;48.780;9.158;2022-11-20T00:03:44;9.70;43.40
728;DHT22;347;48.780;9.158;2022-11-20T00:06:16;9.70;42.70
728;DHT22;347;48.780;9.158;2022-11-20T00:08:42;9.80;42.40
728;DHT22;347;48.780;9.158;2022-11-20T00:11:19;9.60;40.70
728;DHT22;347;48.780;9.158;2022-11-20T00:13:46;9.40;40.90
728;DHT22;347;48.780;9.158;2022-11-20T00:16:13;9.20;41.90
728;DHT22;347;48.780;9.158;2022-11-20T00:18:39;9.10;41.90
728;DHT22;347;48.780;9.158;2022-11-20T00:21:09;9.00;42.00
728;DHT22;347;48.780;9.158;2022-11-20T00:23:35;8.90;42.50
728;DHT22;347;48.780;9.158;2022-11-20T00:26:06;8.90;41.70
728;DHT22;347;48.780;9.158;2022-11-20T00:28:32;8.90;42.30
728;DHT22;347;48.780;9.158;2022-11-20T00:31:24;8.90;42.70
728;DHT22;347;48.780;9.158;2022-11-20T00:33:50;9.00;41.90
728;DHT22;347;48.780;9.158;2022-11-20T00:36:18;9.10;41.80
728;DHT22;347;48.780;9.158;2022-11-20T00:38:45;9.00;40.80
728;DHT22;347;48.780;9.158;2022-11-20T00:41:13;9.00;41.70
728;DHT22;347;48.780;9.158;2022-11-20T00:43:39;8.80;41.90
728;DHT22;347;48.780;9.158;2022-11-20T00:46:08;8.60;42.80
728;DHT22;347;48.780;9.158;2022-11-20T00:48:34;8.60;43.10
728;DHT22;347;48.780;9.158;2022-11-20T00:51:00;8.50;43.20
728;DHT22;347;48.780;9.158;2022-11-20T00:53:26;8.40;43.40
728;DHT22;347;48.780;9.158;2022-11-20T00:55:55;8.50;43.30
728;DHT22;347;48.780;9.158;2022-11-20T00:58:22;8.70;41.90
728;DHT22;347;48.780;9.158;2022-11-20T01:00:47;8.80;41.60
728;DHT22;347;48.780;9.158;2022-11-20T01:03:15;8.80;41.60
728;DHT22;347;48.780;9.158;2022-11-20T01:05:41;8.80;41.60
728;DHT22;347;48.780;9.158;2022-11-20T01:08:07;8.80;41.20
728;DHT22;347;48.780;9.158;2022-11-20T01:10:33;8.80;41.60
728;DHT22;347;48.780;9.158;2022-11-20T01:12:58;8.80;41.60
728;DHT22;347;48.780;9.158;2022-11-20T01:15:42;8.90;41.70
728;DHT22;347;48.780;9.158;2022-11-20T01:18:08;9.10;40.10
728;DHT22;347;48.780;9.158;2022-11-20T01:20:35;9.20;39.50
728;DHT22;347;48.780;9.158;2022-11-20T01:23:02;9.10;38.90
728;DHT22;347;48.780;9.158;2022-11-20T01:25:28;9.10;39.20
728;DHT22;347;48.780;9.158;2022-11-20T01:27:54;9.00;39.60
728;DHT22;347;48.780;9.158;2022-11-20T01:30:19;8.80;39.50
728;DHT22;347;48.780;9.158;2022-11-20T01:32:45;8.90;39.40
728;DHT22;347;48.780;9.158;2022-11-20T01:38:33;9.10;39.30
728;DHT22;347;48.780;9.158;2022-11-20T01:40:58;9.00;39.80
728;DHT22;347;48.780;9.158;2022-11-20T01:43:25;9.10;40.00
728;DHT22;347;48.780;9.158;2022-11-20T01:49:02;9.30;38.20
728;DHT22;347;48.780;9.158;2022-11-20T01:51:43;9.50;37.20
728;DHT22;347;48.780;9.158;2022-11-20T01:54:31;9.70;36.20
728;DHT22;347;48.780;9.158;2022-11-20T01:57:00;9.80;36.20
728;DHT22;347;48.780;9.158;2022-11-20T01:59:28;10.00;33.70
728;DHT22;347;48.780;9.158;2022-11-20T02:01:55;10.10;33.20
728;DHT22;347;48.780;9.158;2022-11-20T02:04:21;10.10;32.80
728;DHT22;347;48.780;9.158;2022-11-20T02:07:00;10.20;32.60
728;DHT22;347;48.780;9.158;2022-11-20T02:09:27;10.10;32.40
728;DHT22;347;48.780;9.158;2022-11-20T02:11:53;10.00;32.20
728;DHT22;347;48.780;9.158;2022-11-20T02:14:19;9.70;34.00
728;DHT22;347;48.780;9.158;2022-11-20T02:16:48;9.70;35.60
728;DHT22;347;48.780;9.158;2022-11-20T02:19:32;9.60;35.10
728;DHT22;347;48.780;9.158;2022-11-20T02:24:29;9.60;36.00
728;DHT22;347;48.780;9.158;2022-11-20T02:27:08;9.70;35.40
728;DHT22;347;48.780;9.158;2022-11-20T02:29:37;9.80;34.40
728;DHT22;347;48.780;9.158;2022-11-20T02:32:05;10.00;33.10
728;DHT22;347;48.780;9.158;2022-11-20T02:34:31;9.90;33.50
728;DHT22;347;48.780;9.158;2022-11-20T02:36:57;9.70;34.20
728;DHT22;347;48.780;9.158;2022-11-20T02:39:25;9.50;34.90
728;DHT22;347;48.780;9.158;2022-11-20T02:41:53;9.40;36.40
728;DHT22;347;48.780;9.158;2022-11-20T02:44:20;9.40;36.40
728;DHT22;347;48.780;9.158;2022-11-20T02:46:46;9.40;36.10
728;DHT22;347;48.780;9.158;2022-11-20T02:49:11;9.50;36.20
728;DHT22;347;48.780;9.158;2022-11-20T02:51:37;9.30;36.50
728;DHT22;347;48.780;9.158;2022-11-20T02:54:03;9.30;36.50
728;DHT22;347;48.780;9.158;2022-11-20T02:56:28;9.20;36.00
728;DHT22;347;48.780;9.158;2022-11-20T02:58:54;8.80;36.60
728;DHT22;347;48.780;9.158;2022-11-20T03:01:21;8.50;38.30
728;DHT22;347;48.780;9.158;2022-11-20T03:03:46;8.50;38.50
728;DHT22;347;48.780;9.158;2022-11-20T03:06:14;8.20;38.90
728;DHT22;347;48.780;9.158;2022-11-20T03:12:03;8.00;40.30
728;DHT22;347;48.780;9.158;2022-11-20T03:14:28;7.90;40.90
728;DHT22;347;48.780;9.158;2022-11-20T03:16:55;8.00;40.90
728;DHT22;347;48.780;9.158;2022-11-20T03:19:20;8.00;40.90
728;DHT22;347;48.780;9.158;2022-11-20T03:21:46;8.10;41.00
728;DHT22;347;48.780;9.158;2022-11-20T03:24:12;8.10;40.50
728;DHT22;347;48.780;9.158;2022-11-20T03:26:39;8.10;41.00
728;DHT22;347;48.780;9.158;2022-11-20T03:29:04;8.20;41.10
728;DHT22;347;48.780;9.158;2022-11-20T03:31:33;8.20;40.40
728;DHT22;347;48.780;9.158;2022-11-20T03:33:59;7.90;40.80
728;DHT22;347;48.780;9.158;2022-11-20T03:36:25;8.00;41.50
728;DHT22;347;48.780;9.158;2022-11-20T03:38:53;7.90;41.60
728;DHT22;347;48.780;9.158;2022-11-20T03:41:28;8.00;41.90
728;DHT22;347;48.780;9.158;2022-11-20T03:43:58;8.10;41.50
728;DHT22;347;48.780;9.158;2022-11-20T03:46:24;8.20;41.80
728;DHT22;347;48.780;9.158;2022-11-20T03:48:50;8.20;41.10
728;DHT22;347;48.780;9.158;2022-11-20T03:51:21;8.20;41.10
728;DHT22;347;48.780;9.158;2022-11-20T03:53:48;8.20;41.10
728;DHT22;347;48.780;9.158;2022-11-20T03:56:17;8.20;41.10
728;DHT22;347;48.780;9.158;2022-11-20T03:58:43;8.00;41.00
728;DHT22;347;48.780;9.158;2022-11-20T04:01:14;8.20;41.10
728;DHT22;347;48.780;9.158;2022-11-20T04:03:41;8.10;41.60
728;DHT22;347;48.780;9.158;2022-11-20T04:06:08;7.90;40.80
728;DHT22;347;48.780;9.158;2022-11-20T04:08:35;7.90;41.50
728;DHT22;347;48.780;9.158;2022-11-20T04:11:11;7.80;42.30
728;DHT22;347;48.780;9.158;2022-11-20T04:13:37;7.90;41.90
728;DHT22;347;48.780;9.158;2022-11-20T04:16:04;7.90;40.90
728;DHT22;347;48.780;9.158;2022-11-20T04:18:29;8.00;41.70
728;DHT22;347;48.780;9.158;2022-11-20T04:20:57;8.00;40.90
728;DHT22;347;48.780;9.158;2022-11-20T04:23:23;8.20;40.90
728;DHT22;347;48.780;9.158;2022-11-20T04:25:48;8.20;39.60
728;DHT22;347;48.780;9.158;2022-11-20T04:28:14;8.00;39.90
728;DHT22;347;48.780;9.158;2022-11-20T04:30:39;7.80;40.80
728;DHT22;347;48.780;9.158;2022-11-20T04:33:05;7.80;40.80
728;DHT22;347;48.780;9.158;2022-11-20T04:35:34;8.00;40.90
728;DHT22;347;48.780;9.158;2022-11-20T04:38:00;8.10;39.60
728;DHT22;347;48.780;9.158;2022-11-20T04:40:25;8.00;40.40
728;DHT22;347;48.780;9.158;2022-11-20T04:42:51;8.20;39.30
728;DHT22;347;48.780;9.158;2022-11-20T04:45:17;8.20;40.00
728;DHT22;347;48.780;9.158;2022-11-20T04:47:42;8.40;39.60
728;DHT22;347;48.780;9.158;2022-11-20T04:50:08;8.60;38.40
728;DHT22;347;48.780;9.158;2022-11-20T04:52:34;8.60;37.60
728;DHT22;347;48.780;9.158;2022-11-20T04:55:00;8.60;38.20
728;DHT22;347;48.780;9.158;2022-11-20T04:57:25;8.60;38.30
728;DHT22;347;48.780;9.158;2022-11-20T04:59:51;8.80;37.90
728;DHT22;347;48.780;9.158;2022-11-20T05:02:16;9.00;37.10
728;DHT22;347;48.780;9.158;2022-11-20T05:04:42;9.10;36.50
728;DHT22;347;48.780;9.158;2022-11-20T05:07:08;9.20;35.80
728;DHT22;347;48.780;9.158;2022-11-20T05:09:33;9.20;35.80
728;DHT22;347;48.780;9.158;2022-11-20T05:11:59;9.00;36.20
728;DHT22;347;48.780;9.158;2022-11-20T05:14:25;9.10;36.00
728;DHT22;347;48.780;9.158;2022-11-20T05:16:50;9.20;37.10
728;DHT22;347;48.780;9.158;2022-11-20T05:19:16;9.30;36.50
728;DHT22;347;48.780;9.158;2022-11-20T05:21:42;9.20;35.50
728;DHT22;347;48.780;9.158;2022-11-20T05:24:07;8.70;37.20
728;DHT22;347;48.780;9.158;2022-11-20T05:26:33;8.50;37.80
728;DHT22;347;48.780;9.158;2022-11-20T05:28:59;8.60;38.00
728;DHT22;347;48.780;9.158;2022-11-20T05:31:25;8.80;37.60
728;DHT22;347;48.780;9.158;2022-11-20T05:33:50;8.70;37.10
728;DHT22;347;48.780;9.158;2022-11-20T05:36:17;8.70;38.20
728;DHT22;347;48.780;9.158;2022-11-20T05:38:43;8.80;37.60
728;DHT22;347;48.780;9.158;2022-11-20T05:43:38;8.80;37.50
728;DHT22;347;48.780;9.158;2022-11-20T05:46:05;8.80;38.20
728;DHT22;347;48.780;9.158;2022-11-20T05:48:31;8.80;37.20
728;DHT22;347;48.780;9.158;2022-11-20T05:50:59;8.80;37.00
728;DHT22;347;48.780;9.158;2022-11-20T05:53:25;8.70;38.00
728;DHT22;347;48.780;9.158;2022-11-20T05:58:23;8.50;38.90
728;DHT22;347;48.780;9.158;2022-11-20T06:00:49;8.40;39.30
728;DHT22;347;48.780;9.158;2022-11-20T06:03:15;8.30;39.20
728;DHT22;347;48.780;9.158;2022-11-20T06:05:40;8.30;40.00
728;DHT22;347;48.780;9.158;2022-11-20T06:08:06;8.40;40.10
728;DHT22;347;48.780;9.158;2022-11-20T06:10:31;8.40;39.40
728;DHT22;347;48.780;9.158;2022-11-20T06:12:58;8.40;40.00
728;DHT22;347;48.780;9.158;2022-11-20T06:15:24;8.50;39.50
728;DHT22;347;48.780;9.158;2022-11-20T06:17:54;8.40;39.10
728;DHT22;347;48.780;9.158;2022-11-20T06:20:21;8.30;40.10
728;DHT22;347;48.780;9.158;2022-11-20T06:22:47;8.20;41.00
728;DHT22;347;48.780;9.158;2022-11-20T06:25:13;8.40;40.40
728;DHT22;347;48.780;9.158;2022-11-20T06:27:39;8.40;39.80
728;DHT22;347;48.780;9.158;2022-11-20T06:30:05;8.40;39.50
728;DHT22;347;48.780;9.158;2022-11-20T06:32:31;8.30;40.60
728;DHT22;347;48.780;9.158;2022-11-20T06:34:56;8.20;40.30
728;DHT22;347;48.780;9.158;2022-11-20T06:37:22;8.10;40.80
728;DHT22;347;48.780;9.158;2022-11-20T06:39:47;8.10;41.00
728;DHT22;347;48.780;9.158;2022-11-20T06:42:13;8.00;40.90
728;DHT22;347;48.780;9.158;2022-11-20T06:44:39;7.90;40.80
728;DHT22;347;48.780;9.158;2022-11-20T06:47:04;8.00;40.90
728;DHT22;347;48.780;9.158;2022-11-20T06:49:30;8.00;40.90
728;DHT22;347;48.780;9.158;2022-11-20T06:51:55;8.10;41.00
728;DHT22;347;48.780;9.158;2022-11-20T06:54:21;8.10;40.70
728;DHT22;347;48.780;9.158;2022-11-20T06:56:47;8.10;41.70
728;DHT22;347;48.780;9.158;2022-11-20T06:59:13;8.20;40.80
728;DHT22;347;48.780;9.158;2022-11-20T07:01:39;8.20;40.30
728;DHT22;347;48.780;9.158;2022-11-20T07:04:05;8.30;40.00
728;DHT22;347;48.780;9.158;2022-11-20T07:06:31;8.30;39.40
728;DHT22;347;48.780;9.158;2022-11-20T07:08:56;8.30;40.30
728;DHT22;347;48.780;9.158;2022-11-20T07:11:22;8.30;40.00
728;DHT22;347;48.780;9.158;2022-11-20T07:13:49;8.30;39.30
728;DHT22;347;48.780;9.158;2022-11-20T07:16:15;8.40;39.40
728;DHT22;347;48.780;9.158;2022-11-20T07:18:41;8.30;39.00
728;DHT22;347;48.780;9.158;2022-11-20T07:21:09;8.30;39.50
728;DHT22;347;48.780;9.158;2022-11-20T07:23:36;8.40;39.90
728;DHT22;347;48.780;9.158;2022-11-20T07:26:06;8.30;39.40
728;DHT22;347;48.780;9.158;2022-11-20T07:28:32;8.40;39.70
728;DHT22;347;48.780;9.158;2022-11-20T07:30:58;8.40;39.50
728;DHT22;347;48.780;9.158;2022-11-20T07:33:24;8.50;40.10
728;DHT22;347;48.780;9.158;2022-11-20T07:35:50;8.40;39.80
728;DHT22;347;48.780;9.158;2022-11-20T07:38:15;8.30;40.30
728;DHT22;347;48.780;9.158;2022-11-20T07:40:41;8.30;40.10
728;DHT22;347;48.780;9.158;2022-11-20T07:43:06;8.10;40.20
728;DHT22;347;48.780;9.158;2022-11-20T07:45:32;8.10;41.00
728;DHT22;347;48.780;9.158;2022-11-20T07:47:58;8.20;40.60
728;DHT22;347;48.780;9.158;2022-11-20T07:50:24;8.20;40.80
728;DHT22;347;48.780;9.158;2022-11-20T07:52:49;8.10;41.00
728;DHT22;347;48.780;9.158;2022-11-20T07:55:16;8.10;41.70
728;DHT22;347;48.780;9.158;2022-11-20T07:57:41;8.10;41.00
728;DHT22;347;48.780;9.158;2022-11-20T08:00:10;8.20;41.10
728;DHT22;347;48.780;9.158;2022-11-20T08:02:40;8.30;40.30
728;DHT22;347;48.780;9.158;2022-11-20T08:05:07;8.30;40.50
728;DHT22;347;48.780;9.158;2022-11-20T08:07:43;8.40;40.10
728;DHT22;347;48.780;9.158;2022-11-20T08:10:11;8.40;40.00
728;DHT22;347;48.780;9.158;2022-11-20T08:12:44;8.30;40.30
728;DHT22;347;48.780;9.158;2022-11-20T08:15:28;8.40;40.40
728;DHT22;347;48.780;9.158;2022-11-20T08:18:00;8.30;40.20
728;DHT22;347;48.780;9.158;2022-11-20T08:20:25;8.30;40.70
728;DHT22;347;48.780;9.158;2022-11-20T08:22:51;8.30;41.10
728;DHT22;347;48.780;9.158;2022-11-20T08:25:17;8.30;41.10
728;DHT22;347;48.780;9.158;2022-11-20T08:27:42;8.40;40.90
728;DHT22;347;48.780;9.158;2022-11-20T08:30:08;8.50;40.50
728;DHT22;347;48.780;9.158;2022-11-20T08:32:34;8.40;40.70
728;DHT22;347;48.780;9.158;2022-11-20T08:35:02;8.50;41.30
728;DHT22;347;48.780;9.158;2022-11-20T08:37:28;8.40;41.20
728;DHT22;347;48.780;9.158;2022-11-20T08:39:53;8.40;41.20
728;DHT22;347;48.780;9.158;2022-11-20T08:42:22;8.40;40.80
728;DHT22;347;48.780;9.158;2022-11-20T08:44:47;8.40;41.20
728;DHT22;347;48.780;9.158;2022-11-20T08:47:13;8.40;41.20
728;DHT22;347;48.780;9.158;2022-11-20T08:49:39;8.40;41.20
728;DHT22;347;48.780;9.158;2022-11-20T08:52:04;8.40;41.20
728;DHT22;347;48.780;9.158;2022-11-20T08:54:30;8.50;41.30
728;DHT22;347;48.780;9.158;2022-11-20T08:56:56;8.60;41.10
728;DHT22;347;48.780;9.158;2022-11-20T08:59:22;8.70;40.80
728;DHT22;347;48.780;9.158;2022-11-20T09:01:47;8.80;40.70
728;DHT22;347;48.780;9.158;2022-11-20T09:04:13;8.80;40.10
728;DHT22;347;48.780;9.158;2022-11-20T09:06:39;8.90;39.90
728;DHT22;347;48.780;9.158;2022-11-20T09:09:05;8.90;39.90
728;DHT22;347;48.780;9.158;2022-11-20T09:11:31;8.80;40.00
728;DHT22;347;48.780;9.158;2022-11-20T09:13:57;8.80;40.30
728;DHT22;347;48.780;9.158;2022-11-20T09:16:22;8.80;41.00
728;DHT22;347;48.780;9.158;2022-11-20T09:18:49;8.80;40.70
728;DHT22;347;48.780;9.158;2022-11-20T09:21:15;8.90;41.10
728;DHT22;347;48.780;9.158;2022-11-20T09:23:42;8.80;40.00
728;DHT22;347;48.780;9.158;2022-11-20T09:26:12;8.90;41.70
728;DHT22;347;48.780;9.158;2022-11-20T09:28:38;9.00;40.90
728;DHT22;347;48.780;9.158;2022-11-20T09:31:09;9.00;41.40
728;DHT22;347;48.780;9.158;2022-11-20T09:33:35;9.00;40.60
728;DHT22;347;48.780;9.158;2022-11-20T09:36:01;9.00;40.50
728;DHT22;347;48.780;9.158;2022-11-20T09:38:27;9.00;40.10
728;DHT22;347;48.780;9.158;2022-11-20T09:41:05;8.90;40.50
728;DHT22;347;48.780;9.158;2022-11-20T09:43:40;8.80;40.90
728;DHT22;347;48.780;9.158;2022-11-20T09:46:20;8.80;40.30
728;DHT22;347;48.780;9.158;2022-11-20T09:52:01;8.90;40.00
728;DHT22;347;48.780;9.158;2022-11-20T09:54:33;8.80;39.70
728;DHT22;347;48.780;9.158;2022-11-20T09:57:02;8.80;39.80
728;DHT22;347;48.780;9.158;2022-11-20T09:59:34;8.90;39.90
728;DHT22;347;48.780;9.158;2022-11-20T10:02:03;8.90;39.30
728;DHT22;347;48.780;9.158;2022-11-20T10:04:33;9.00;39.20
728;DHT22;347;48.780;9.158;2022-11-20T10:09:36;9.00;39.10
728;DHT22;347;48.780;9.158;2022-11-20T10:14:56;8.90;39.70
728;DHT22;347;48.780;9.158;2022-11-20T10:23:00;8.90;40.50
728;DHT22;347;48.780;9.158;2022-11-20T10:26:31;9.00;41.10
728;DHT22;347;48.780;9.158;2022-11-20T10:31:33;9.00;44.60
728;DHT22;347;48.780;9.158;2022-11-20T10:34:03;9.20;45.30
728;DHT22;347;48.780;9.158;2022-11-20T10:36:34;8.90;46.00
728;DHT22;347;48.780;9.158;2022-11-20T10:41:52;8.90;47.60
728;DHT22;347;48.780;9.158;2022-11-20T10:44:22;8.80;47.50
728;DHT22;347;48.780;9.158;2022-11-20T10:47:13;8.70;48.90
728;DHT22;347;48.780;9.158;2022-11-20T10:49:39;8.70;49.80
728;DHT22;347;48.780;9.158;2022-11-20T10:57:19;9.00;48.10
728;DHT22;347;48.780;9.158;2022-11-20T11:02:29;9.10;46.50
728;DHT22;347;48.780;9.158;2022-11-20T11:04:58;9.00;47.00
728;DHT22;347;48.780;9.158;2022-11-20T11:07:38;8.90;47.90
728;DHT22;347;48.780;9.158;2022-11-20T11:10:32;8.90;48.00
728;DHT22;347;48.780;9.158;2022-11-20T11:12:58;9.00;48.50
728;DHT22;347;48.780;9.158;2022-11-20T11:15:36;9.00;48.80
728;DHT22;347;48.780;9.158;2022-11-20T11:18:02;9.20;49.00
728;DHT22;347;48.780;9.158;2022-11-20T11:20:28;9.00;48.80
728;DHT22;347;48.780;9.158;2022-11-20T11:22:56;9.00;49.20
728;DHT22;347;48.780;9.158;2022-11-20T11:25:36;9.10;49.30
728;DHT22;347;48.780;9.158;2022-11-20T11:30:45;9.20;48.30
728;DHT22;347;48.780;9.158;2022-11-20T11:35:57;9.20;48.90
728;DHT22;347;48.780;9.158;2022-11-20T11:40:59;9.00;48.20
728;DHT22;347;48.780;9.158;2022-11-20T11:43:29;9.10;48.80
728;DHT22;347;48.780;9.158;2022-11-20T11:46:34;9.00;47.00
728;DHT22;347;48.780;9.158;2022-11-20T11:49:21;9.10;48.20
728;DHT22;347;48.780;9.158;2022-11-20T11:57:15;9.50;47.80
728;DHT22;347;48.780;9.158;2022-11-20T12:00:03;9.60;44.60
728;DHT22;347;48.780;9.158;2022-11-20T12:02:35;9.60;44.30
728;DHT22;347;48.780;9.158;2022-11-20T12:05:30;9.70;43.80
728;DHT22;347;48.780;9.158;2022-11-20T12:08:09;9.60;41.90
728;DHT22;347;48.780;9.158;2022-11-20T12:16:04;9.60;40.50
728;DHT22;347;48.780;9.158;2022-11-20T12:18:30;9.60;41.10
728;DHT22;347;48.780;9.158;2022-11-20T12:30:18;10.10;37.50
728;DHT22;347;48.780;9.158;2022-11-20T12:43:20;9.90;32.30
728;DHT22;347;48.780;9.158;2022-11-20T12:54:23;10.20;29.30
728;DHT22;347;48.780;9.158;2022-11-20T13:01:55;10.00;29.70
728;DHT22;347;48.780;9.158;2022-11-20T13:07:12;10.10;28.90
728;DHT22;347;48.780;9.158;2022-11-20T13:09:58;10.00;28.50
728;DHT22;347;48.780;9.158;2022-11-20T13:12:38;10.10;28.80
728;DHT22;347;48.780;9.158;2022-11-20T13:15:34;10.00;28.50
728;DHT22;347;48.780;9.158;2022-11-20T13:18:04;10.10;28.90
728;DHT22;347;48.780;9.158;2022-11-20T13:20:32;10.10;29.00
728;DHT22;347;48.780;9.158;2022-11-20T13:22:58;10.00;28.00
728;DHT22;347;48.780;9.158;2022-11-20T13:25:35;9.90;28.60
728;DHT22;347;48.780;9.158;2022-11-20T13:30:52;10.00;27.70
728;DHT22;347;48.780;9.158;2022-11-20T13:33:33;10.10;27.40
728;DHT22;347;48.780;9.158;2022-11-20T13:36:03;10.20;27.60
728;DHT22;347;48.780;9.158;2022-11-20T13:38:46;10.10;28.30
728;DHT22;347;48.780;9.158;2022-11-20T13:41:22;10.10;28.50
728;DHT22;347;48.780;9.158;2022-11-20T13:43:58;10.00;28.70
728;DHT22;347;48.780;9.158;2022-11-20T13:46:39;9.90;28.40
728;DHT22;347;48.780;9.158;2022-11-20T13:49:20;9.80;29.10
728;DHT22;347;48.780;9.158;2022-11-20T13:51:49;9.80;29.70
728;DHT22;347;48.780;9.158;2022-11-20T14:02:25;9.60;30.50
728;DHT22;347;48.780;9.158;2022-11-20T14:04:54;9.50;33.40
728;DHT22;347;48.780;9.158;2022-11-20T14:07:31;9.30;34.40
728;DHT22;347;48.780;9.158;2022-11-20T14:09:58;9.20;36.90
728;DHT22;347;48.780;9.158;2022-11-20T14:12:29;9.10;37.00
728;DHT22;347;48.780;9.158;2022-11-20T14:14:55;9.00;37.00
728;DHT22;347;48.780;9.158;2022-11-20T14:19:50;8.90;38.40
728;DHT22;347;48.780;9.158;2022-11-20T14:22:25;8.90;38.60
728;DHT22;347;48.780;9.158;2022-11-20T14:27:47;8.90;39.00
728;DHT22;347;48.780;9.158;2022-11-20T14:30:21;8.90;39.40
728;DHT22;347;48.780;9.158;2022-11-20T14:32:48;9.00;39.20
728;DHT22;347;48.780;9.158;2022-11-20T14:35:27;9.10;38.80
728;DHT22;347;48.780;9.158;2022-11-20T14:37:55;9.20;38.80
728;DHT22;347;48.780;9.158;2022-11-20T14:40:39;9.30;37.90
728;DHT22;347;48.780;9.158;2022-11-20T14:43:24;9.30;37.20
728;DHT22;347;48.780;9.158;2022-11-20T14:46:04;9.40;36.90
728;DHT22;347;48.780;9.158;2022-11-20T14:48:40;9.40;37.30
728;DHT22;347;48.780;9.158;2022-11-20T14:51:31;9.50;35.20
728;DHT22;347;48.780;9.158;2022-11-20T14:53:55;9.50;35.10
728;DHT22;347;48.780;9.158;2022-11-20T14:56:23;9.40;33.60
728;DHT22;347;48.780;9.158;2022-11-20T14:58:56;9.30;34.90
728;DHT22;347;48.780;9.158;2022-11-20T15:01:29;9.20;33.20
728;DHT22;347;48.780;9.158;2022-11-20T15:04:05;9.30;33.60
728;DHT22;347;48.780;9.158;2022-11-20T15:06:31;9.20;33.70
728;DHT22;347;48.780;9.158;2022-11-20T15:08:57;9.20;34.10
728;DHT22;347;48.780;9.158;2022-11-20T15:11:30;9.30;34.40
728;DHT22;347;48.780;9.158;2022-11-20T15:13:56;9.20;34.00
728;DHT22;347;48.780;9.158;2022-11-20T15:16:23;9.20;34.70
728;DHT22;347;48.780;9.158;2022-11-20T15:18:50;9.20;34.30
728;DHT22;347;48.780;9.158;2022-11-20T15:21:18;9.20;33.90
728;DHT22;347;48.780;9.158;2022-11-20T15:23:46;9.10;35.20
728;DHT22;347;48.780;9.158;2022-11-20T15:26:15;9.10;35.60
728;DHT22;347;48.780;9.158;2022-11-20T15:28:46;9.10;35.00
728;DHT22;347;48.780;9.158;2022-11-20T15:31:18;9.10;34.70
728;DHT22;347;48.780;9.158;2022-11-20T15:33:44;9.20;35.10
728;DHT22;347;48.780;9.158;2022-11-20T15:36:10;9.20;35.80
728;DHT22;347;48.780;9.158;2022-11-20T15:38:36;9.30;35.20
728;DHT22;347;48.780;9.158;2022-11-20T15:41:03;9.40;34.60
728;DHT22;347;48.780;9.158;2022-11-20T15:43:29;9.40;34.70
728;DHT22;347;48.780;9.158;2022-11-20T15:46:13;9.30;35.30
728;DHT22;347;48.780;9.158;2022-11-20T15:48:42;9.20;34.30
728;DHT22;347;48.780;9.158;2022-11-20T15:56:41;9.20;34.70
728;DHT22;347;48.780;9.158;2022-11-20T15:59:06;9.30;34.10
728;DHT22;347;48.780;9.158;2022-11-20T16:01:32;9.30;35.10
728;DHT22;347;48.780;9.158;2022-11-20T16:03:59;9.30;34.60
728;DHT22;347;48.780;9.158;2022-11-20T16:06:25;9.30;34.80
728;DHT22;347;48.780;9.158;2022-11-20T16:08:50;9.30;34.80
728;DHT22;347;48.780;9.158;2022-11-20T16:11:17;9.40;34.10
728;DHT22;347;48.780;9.158;2022-11-20T16:13:43;9.40;34.10
728;DHT22;347;48.780;9.158;2022-11-20T16:16:36;9.30;35.10
728;DHT22;347;48.780;9.158;2022-11-20T16:19:02;9.30;34.60
728;DHT22;347;48.780;9.158;2022-11-20T16:21:29;9.20;34.70
728;DHT22;347;48.780;9.158;2022-11-20T16:24:04;9.30;35.50
728;DHT22;347;48.780;9.158;2022-11-20T16:26:30;9.20;34.90
728;DHT22;347;48.780;9.158;2022-11-20T16:28:59;9.10;35.50
728;DHT22;347;48.780;9.158;2022-11-20T16:31:24;9.10;35.80
728;DHT22;347;48.780;9.158;2022-11-20T16:33:56;9.20;36.10
728;DHT22;347;48.780;9.158;2022-11-20T16:36:25;9.20;35.80
728;DHT22;347;48.780;9.158;2022-11-20T16:38:58;9.20;35.80
728;DHT22;347;48.780;9.158;2022-11-20T16:41:30;9.10;36.40
728;DHT22;347;48.780;9.158;2022-11-20T16:43:58;9.00;36.30
728;DHT22;347;48.780;9.158;2022-11-20T16:46:26;8.90;37.10
728;DHT22;347;48.780;9.158;2022-11-20T16:49:00;8.90;37.40
728;DHT22;347;48.780;9.158;2022-11-20T16:51:27;8.90;37.70
728;DHT22;347;48.780;9.158;2022-11-20T16:53:53;8.90;37.30
728;DHT22;347;48.780;9.158;2022-11-20T16:56:22;8.90;37.30
728;DHT22;347;48.780;9.158;2022-11-20T16:58:48;8.80;37.10
728;DHT22;347;48.780;9.158;2022-11-20T17:01:17;8.70;37.50
728;DHT22;347;48.780;9.158;2022-11-20T17:03:45;8.80;37.70
728;DHT22;347;48.780;9.158;2022-11-20T17:06:20;8.90;37.30
728;DHT22;347;48.780;9.158;2022-11-20T17:08:46;8.90;37.00
728;DHT22;347;48.780;9.158;2022-11-20T17:11:14;9.00;36.90
728;DHT22;347;48.780;9.158;2022-11-20T17:13:40;9.00;36.60
728;DHT22;347;48.780;9.158;2022-11-20T17:16:09;9.00;37.40
728;DHT22;347;48.780;9.158;2022-11-20T17:18:35;8.90;36.80
728;DHT22;347;48.780;9.158;2022-11-20T17:21:01;8.90;37.50
728;DHT22;347;48.780;9.158;2022-11-20T17:23:40;8.90;37.10
728;DHT22;347;48.780;9.158;2022-11-20T17:26:09;8.80;36.40
728;DHT22;347;48.780;9.158;2022-11-20T17:28:37;8.80;36.90
728;DHT22;347;48.780;9.158;2022-11-20T17:31:14;8.80;37.00
728;DHT22;347;48.780;9.158;2022-11-20T17:33:42;8.70;36.90
728;DHT22;347;48.780;9.158;2022-11-20T17:36:09;8.60;37.50
728;DHT22;347;48.780;9.158;2022-11-20T17:38:35;8.70;37.40
728;DHT22;347;48.780;9.158;2022-11-20T17:41:07;8.60;37.00
728;DHT22;347;48.780;9.158;2022-11-20T17:43:33;8.60;37.20
728;DHT22;347;48.780;9.158;2022-11-20T17:46:06;8.60;36.90
728;DHT22;347;48.780;9.158;2022-11-20T17:48:33;8.70;37.00
728;DHT22;347;48.780;9.158;2022-11-20T17:51:00;8.70;36.30
728;DHT22;347;48.780;9.158;2022-11-20T17:53:26;8.70;36.50
728;DHT22;347;48.780;9.158;2022-11-20T17:55:56;8.70;36.60
728;DHT22;347;48.780;9.158;2022-11-20T17:58:41;8.70;36.20
728;DHT22;347;48.780;9.158;2022-11-20T18:01:07;8.60;36.30
728;DHT22;347;48.780;9.158;2022-11-20T18:03:33;8.70;36.10
728;DHT22;347;48.780;9.158;2022-11-20T18:06:16;8.70;36.00
728;DHT22;347;48.780;9.158;2022-11-20T18:08:43;8.80;36.20
728;DHT22;347;48.780;9.158;2022-11-20T18:11:13;8.80;35.50
728;DHT22;347;48.780;9.158;2022-11-20T18:13:40;8.90;35.70
728;DHT22;347;48.780;9.158;2022-11-20T18:16:25;8.90;35.10
728;DHT22;347;48.780;9.158;2022-11-20T18:18:57;8.90;34.90
728;DHT22;347;48.780;9.158;2022-11-20T18:21:24;8.90;34.70
728;DHT22;347;48.780;9.158;2022-11-20T18:23:51;8.90;34.80
728;DHT22;347;48.780;9.158;2022-11-20T18:26:17;8.80;34.50
728;DHT22;347;48.780;9.158;2022-11-20T18:28:43;8.90;34.50
728;DHT22;347;48.780;9.158;2022-11-20T18:31:09;8.80;34.90
728;DHT22;347;48.780;9.158;2022-11-20T18:33:35;8.70;34.70
728;DHT22;347;48.780;9.158;2022-11-20T18:38:33;8.70;34.80
728;DHT22;347;48.780;9.158;2022-11-20T18:40:59;8.70;35.00
728;DHT22;347;48.780;9.158;2022-11-20T18:43:25;8.60;35.00
728;DHT22;347;48.780;9.158;2022-11-20T18:46:09;8.60;35.80
728;DHT22;347;48.780;9.158;2022-11-20T18:48:34;8.70;37.00
728;DHT22;347;48.780;9.158;2022-11-20T18:51:05;8.70;38.60
728;DHT22;347;48.780;9.158;2022-11-20T18:53:31;8.60;38.20
728;DHT22;347;48.780;9.158;2022-11-20T18:56:03;8.40;38.20
728;DHT22;347;48.780;9.158;2022-11-20T18:58:29;8.50;39.20
728;DHT22;347;48.780;9.158;2022-11-20T19:00:55;8.60;40.50
728;DHT22;347;48.780;9.158;2022-11-20T19:03:20;8.60;39.70
728;DHT22;347;48.780;9.158;2022-11-20T19:05:46;8.50;38.90
728;DHT22;347;48.780;9.158;2022-11-20T19:08:12;8.60;39.10